• Join FlightAware (Why Join?)
  • Login
  • US Flag 
01:56AM EDT


 

Airport Tracker/Info


-or-


 

Live Flight TrackerFlight Track Log ✈ UCA5001 ✈ 25-Aug-2013 ✈ KROC - KCLE

Flight Track Log - Related Links

Times and Time Zones

All times are in EDT time to prevent confusion due to time zone crossing. See the UCA5001 flight status page for this flight to view local times or setup timezone preferences in your user account.

Time Position Orientation Groundspeed Altitude Reporting Facility
EDT Latitude Longitude Course Direction KTS MPH feet Rate Location/Type
06:57PM 43.1222 -77.6828 194° South 119 137 1,300  Level Cleveland Center
06:58PM 43.0797 -77.6975 194° South 160 184 2,400 1,500 Climbing Cleveland Center
07:00PM 43.0181 -77.7167 193° South 158 182 5,200 1,680 Climbing Cleveland Center
07:01PM 42.9758 -77.7267 190° South 154 177 6,600 1,200 Climbing Cleveland Center
07:02PM 42.9258 -77.7411 192° South 173 199 7,800 1,200 Climbing Cleveland Center
07:03PM 42.8722 -77.7583 193° South 196 226 9,200 1,260 Climbing Cleveland Center
07:04PM 42.8469 -77.8219 242° Southwest 195 224 10,500 1,320 Climbing Cleveland Center
07:05PM 42.8178 -77.9008 243° Southwest 197 227 12,000 1,140 Climbing Cleveland Center
07:06PM 42.7914 -77.9689 242° Southwest 206 237 12,900 720 Climbing Cleveland Center
07:07PM 42.7628 -78.0475 244° Southwest 233 268 13,500 900 Climbing Cleveland Center
07:08PM 42.7328 -78.1214 241° Southwest 226 260 14,800 1,080 Climbing Cleveland Center
07:09PM 42.7067 -78.1925 243° Southwest 214 246 15,800 480 Climbing Cleveland Center
07:10PM 42.6717 -78.2861 243° Southwest 227 261 15,900  Climbing Cleveland Center
07:11PM 42.6358 -78.3750 241° Southwest 262 302 15,900  Level Cleveland Center
07:12PM 42.6017 -78.4636 242° Southwest 266 306 15,900  Level Cleveland Center
07:13PM 42.5678 -78.5550 243° Southwest 270 311 15,900  Level Cleveland Center
07:14PM 42.5328 -78.6456 242° Southwest 272 313 15,900  Level Cleveland Center
07:15PM 42.4986 -78.7356 243° Southwest 271 312 15,900  Level Cleveland Center
07:16PM 42.4550 -78.8442 241° Southwest 272 313 15,900  Level Cleveland Center
07:17PM 42.4203 -78.9364 243° Southwest 270 311 15,900  Level Cleveland Center
07:18PM 42.3842 -79.0269 242° Southwest 276 318 15,900  Level Cleveland Center
07:19PM 42.3486 -79.1183 242° Southwest 278 320 15,900  Level Cleveland Center
07:20PM 42.3142 -79.2056 242° Southwest 270 311 15,900  Level Cleveland Center
07:21PM 42.2717 -79.3133 242° Southwest 274 315 16,000  Climbing Cleveland Center
07:23PM 42.2358 -79.4025 242° Southwest 276 318 16,000  Level Cleveland Center
07:24PM 42.2000 -79.4944 242° Southwest 273 314 16,000  Level Cleveland Center
07:25PM 42.1650 -79.5819 242° Southwest 276 318 16,000  Level Cleveland Center
07:26PM 42.1281 -79.6742 242° Southwest 283 326 16,000  Level Cleveland Center
07:27PM 42.0856 -79.7800 242° Southwest 273 314 16,000  Level Cleveland Center
07:28PM 42.0497 -79.8700 242° Southwest 275 316 16,000  Level Cleveland Center
07:29PM 42.0133 -79.9581 241° Southwest 273 314 16,000  Level Cleveland Center
07:30PM 41.9767 -80.0486 241° Southwest 274 315 16,000  Level Cleveland Center
07:31PM 41.9406 -80.1397 242° Southwest 273 314 16,000  Level Cleveland Center
07:32PM 41.8972 -80.2447 241° Southwest 273 314 16,000 -240 Level Cleveland Center
07:33PM 41.8594 -80.3358 241° Southwest 276 318 15,600 -600 Descending Cleveland Center
07:34PM 41.8186 -80.4339 241° Southwest 295 339 14,800 -780 Descending Cleveland Center
07:35PM 41.7786 -80.5319 241° Southwest 298 343 14,000 -840 Descending Cleveland Center
07:36PM 41.7383 -80.6297 241° Southwest 297 342 13,100 -840 Descending Cleveland Center
07:37PM 41.6983 -80.7272 241° Southwest 298 343 12,300 -780 Descending Cleveland Center
07:38PM 41.6753 -80.8281 253° West 284 327 11,500 -840 Descending Cleveland Center
07:39PM 41.6533 -80.9497 256° West 286 329 10,600 -900 Descending Cleveland Center
07:40PM 41.6464 -81.0078 261° West 283 326 10,100 -840 Descending Cleveland Center
07:41PM 41.6292 -81.1114 257° West 279 321 9,300 -600 Descending Cleveland Center
07:42PM 41.6150 -81.2014 258° West 271 312 9,000 -480 Descending Cleveland Center
07:42PM 41.6069 -81.2525 258° West 273 314 8,600 -1,080 Descending Cleveland Center
07:43PM 41.5867 -81.3508 255° West 270 311 7,300 -1,260 Descending Cleveland Center
07:44PM 41.5681 -81.4453 255° West 267 307 6,100 -1,080 Descending Cleveland Center
07:45PM 41.5500 -81.5336 255° West 253 291 5,100 -1,020 Descending Cleveland Center
07:46PM 41.5264 -81.6336 253° West 244 281 4,000 -840 Descending Cleveland Center
07:47PM 41.4989 -81.7117 245° Southwest 237 273 3,400 -720 Descending Cleveland Center
07:48PM 41.4603 -81.7658 226° Southwest 211 243 2,500 -960 Descending Cleveland Center
07:49PM 41.4383 -81.8028 232° Southwest 152 175 1,500 -780 Descending Cleveland Center
07:50PM 41.4156 -81.8364 228° Southwest 129 148 900 -600 Descending Cleveland Center
07:52PM 41.4000 -81.8500 252° West  Level FlightAware Approximate